
Distance (Route):
Temperature : 24.4°C
Humidity : 47.7%
Pressure : 0hPa| Receiver | Frames | First received | Last received |
|---|---|---|---|
| LZ4TU-5 | 167 | 2026-08-30 23:16:36 | 2026-08-31 01:01:18 |
| Receiver | Date | Latitude | Longitude | Direction | Speed | Altitude | Climb | Temperature | Humidity | Pressure | Voltage | Killtimer | Uptime | BKT | XDATA |
|---|---|---|---|---|---|---|---|---|---|---|---|---|---|---|---|
| LZ4TU-5 | 2026-08-31 01:01:18 | 44.09298 | 22.87949 | 301° | 9km/h | 393m | -14.1m/s | 24.4°C | 47.7% | 0hPa | 0V | 00:00:00 | 00:00:00 | 00:00:00 | |
| LZ4TU-5 | 2026-08-31 01:01:11 | 44.09287 | 22.87975 | 311° | 16km/h | 493m | -14.2m/s | 23.9°C | 46.6% | 0hPa | 0V | 00:00:00 | 00:00:00 | 00:00:00 | |
| LZ4TU-5 | 2026-08-31 01:01:06 | 44.09278 | 22.88006 | 312° | 24km/h | 559m | -14.2m/s | 23.9°C | 44.8% | 0hPa | 0V | 00:00:00 | 00:00:00 | 00:00:00 | |
| LZ4TU-5 | 2026-08-31 01:01:01 | 44.09257 | 22.88039 | 310° | 26km/h | 625m | -14.0m/s | 24.0°C | 44.1% | 0hPa | 0V | 00:00:00 | 00:00:00 | 00:00:00 | |
| LZ4TU-5 | 2026-08-31 01:00:57 | 44.09239 | 22.88064 | 313° | 24km/h | 684m | -14.4m/s | 23.8°C | 45.1% | 0hPa | 0V | 00:00:00 | 00:00:00 | 00:00:00 | |
| LZ4TU-5 | 2026-08-31 01:00:53 | 44.09222 | 22.88086 | 311° | 22km/h | 743m | -14.2m/s | 23.6°C | 44.8% | 0hPa | 0V | 00:00:00 | 00:00:00 | 00:00:00 | |
| LZ4TU-5 | 2026-08-31 01:00:48 | 44.09209 | 22.88117 | 305° | 20km/h | 815m | -14.5m/s | 23.1°C | 47.1% | 0hPa | 0V | 00:00:00 | 00:00:00 | 00:00:00 | |
| LZ4TU-5 | 2026-08-31 01:00:43 | 44.09197 | 22.88146 | 296° | 18km/h | 887m | -14.5m/s | 22.6°C | 49.3% | 0hPa | 0V | 00:00:00 | 00:00:00 | 00:00:00 | |
| LZ4TU-5 | 2026-08-31 01:00:38 | 44.09192 | 22.88174 | 285° | 18km/h | 951m | -14.5m/s | 22.2°C | 49.5% | 0hPa | 0V | 00:00:00 | 00:00:00 | 00:00:00 | |
| LZ4TU-5 | 2026-08-31 01:00:33 | 44.09184 | 22.88208 | 278° | 22km/h | 1022m | -14.7m/s | 21.7°C | 49.7% | 0hPa | 0V | 00:00:00 | 00:00:00 | 00:00:00 | |
| LZ4TU-5 | 2026-08-31 01:00:28 | 44.09179 | 22.88243 | 275° | 20km/h | 1100m | -14.6m/s | 21.1°C | 51.3% | 0hPa | 0V | 00:00:00 | 00:00:00 | 00:00:00 | |
| LZ4TU-5 | 2026-08-31 01:00:25 | 44.09176 | 22.88272 | 278° | 22km/h | 1160m | -14.7m/s | 20.7°C | 51.8% | 0hPa | 0V | 00:00:00 | 00:00:00 | 00:00:00 | |
| LZ4TU-5 | 2026-08-31 01:00:19 | 44.09173 | 22.88310 | 279° | 20km/h | 1237m | -14.5m/s | 20.0°C | 52.5% | 0hPa | 0V | 00:00:00 | 00:00:00 | 00:00:00 | |
| LZ4TU-5 | 2026-08-31 01:00:14 | 44.09171 | 22.88346 | 278° | 18km/h | 1312m | -14.6m/s | 19.4°C | 54.4% | 0hPa | 0V | 00:00:00 | 00:00:00 | 00:00:00 | |
| LZ4TU-5 | 2026-08-31 01:00:10 | 44.09167 | 22.88375 | 269° | 16km/h | 1380m | -14.7m/s | 18.9°C | 55.4% | 0hPa | 0V | 00:00:00 | 00:00:00 | 00:00:00 | |
| LZ4TU-5 | 2026-08-31 01:00:04 | 44.09171 | 22.88408 | 264° | 16km/h | 1459m | -14.8m/s | 18.3°C | 56.1% | 0hPa | 0V | 00:00:00 | 00:00:00 | 00:00:00 | |
| LZ4TU-5 | 2026-08-31 00:59:59 | 44.09173 | 22.88433 | 254° | 13km/h | 1536m | -14.9m/s | 17.9°C | 55.8% | 0hPa | 0V | 00:00:00 | 00:00:00 | 00:00:00 | |
| LZ4TU-5 | 2026-08-31 00:59:54 | 44.09178 | 22.88453 | 250° | 11km/h | 1611m | -15.2m/s | 17.3°C | 59.4% | 0hPa | 0V | 00:00:00 | 00:00:00 | 00:00:00 | |
| LZ4TU-5 | 2026-08-31 00:59:49 | 44.09180 | 22.88464 | 252° | 9km/h | 1682m | -15.4m/s | 17.2°C | 58.4% | 0hPa | 0V | 00:00:00 | 00:00:00 | 00:00:00 | |
| LZ4TU-5 | 2026-08-31 00:59:45 | 44.09182 | 22.88475 | 263° | 5km/h | 1746m | -15.0m/s | 16.8°C | 60.1% | 0hPa | 0V | 00:00:00 | 00:00:00 | 00:00:00 | |
| LZ4TU-5 | 2026-08-31 00:59:36 | 44.09180 | 22.88495 | 328° | 5km/h | 1888m | -15.1m/s | 15.9°C | 61.7% | 0hPa | 0V | 00:00:00 | 00:00:00 | 00:00:00 | |
| LZ4TU-5 | 2026-08-31 00:59:31 | 44.09172 | 22.88495 | 334° | 5km/h | 1958m | -15.1m/s | 15.4°C | 62.7% | 0hPa | 0V | 00:00:00 | 00:00:00 | 00:00:00 | |
| LZ4TU-5 | 2026-08-31 00:59:27 | 44.09167 | 22.88499 | 340° | 5km/h | 2021m | -15.1m/s | 14.8°C | 64.4% | 0hPa | 0V | 00:00:00 | 00:00:00 | 00:00:00 | |
| LZ4TU-5 | 2026-08-31 00:59:22 | 44.09165 | 22.88504 | 349° | 5km/h | 2099m | -15.2m/s | 14.1°C | 67.3% | 0hPa | 0V | 00:00:00 | 00:00:00 | 00:00:00 | |
| LZ4TU-5 | 2026-08-31 00:59:18 | 44.09160 | 22.88505 | 2° | 4km/h | 2169m | -15.1m/s | 13.4°C | 69.3% | 0hPa | 0V | 00:00:00 | 00:00:00 | 00:00:00 | |
| LZ4TU-5 | 2026-08-31 00:59:12 | 44.09153 | 22.88504 | 9° | 5km/h | 2249m | -15.3m/s | 12.7°C | 70.0% | 0hPa | 0V | 00:00:00 | 00:00:00 | 00:00:00 | |
| LZ4TU-5 | 2026-08-31 00:59:08 | 44.09147 | 22.88505 | 10° | 7km/h | 2313m | -15.3m/s | 12.2°C | 70.9% | 0hPa | 0V | 00:00:00 | 00:00:00 | 00:00:00 | |
| LZ4TU-5 | 2026-08-31 00:58:59 | 44.09127 | 22.88502 | 11° | 9km/h | 2447m | -15.5m/s | 10.9°C | 77.5% | 0hPa | 0V | 00:00:00 | 00:00:00 | 00:00:00 | |
| LZ4TU-5 | 2026-08-31 00:58:55 | 44.09116 | 22.88500 | 9° | 11km/h | 2511m | -15.4m/s | 10.3°C | 79.0% | 0hPa | 0V | 00:00:00 | 00:00:00 | 00:00:00 | |
| LZ4TU-5 | 2026-08-31 00:58:50 | 44.09101 | 22.88500 | 14° | 11km/h | 2591m | -15.3m/s | 9.7°C | 72.5% | 0hPa | 0V | 00:00:00 | 00:00:00 | 00:00:00 | |
| LZ4TU-5 | 2026-08-31 00:58:45 | 44.09089 | 22.88496 | 25° | 9km/h | 2669m | -15.4m/s | 9.2°C | 66.1% | 0hPa | 0V | 00:00:00 | 00:00:00 | 00:00:00 | |
| LZ4TU-5 | 2026-08-31 00:58:40 | 44.09080 | 22.88483 | 42° | 9km/h | 2741m | -15.5m/s | 9.2°C | 46.6% | 0hPa | 0V | 00:00:00 | 00:00:00 | 00:00:00 | |
| LZ4TU-5 | 2026-08-31 00:58:36 | 44.09073 | 22.88474 | 65° | 9km/h | 2808m | -15.5m/s | 8.9°C | 41.3% | 0hPa | 0V | 00:00:00 | 00:00:00 | 00:00:00 | |
| LZ4TU-5 | 2026-08-31 00:58:31 | 44.09071 | 22.88453 | 96° | 16km/h | 2889m | -15.7m/s | 9.4°C | 21.3% | 0hPa | 0V | 00:00:00 | 00:00:00 | 00:00:00 | |
| LZ4TU-5 | 2026-08-31 00:58:27 | 44.09075 | 22.88430 | 102° | 18km/h | 2951m | -15.8m/s | 9.1°C | 24.9% | 0hPa | 0V | 00:00:00 | 00:00:00 | 00:00:00 | |
| LZ4TU-5 | 2026-08-31 00:58:22 | 44.09078 | 22.88399 | 106° | 16km/h | 3028m | -15.7m/s | 8.4°C | 30.6% | 0hPa | 0V | 00:00:00 | 00:00:00 | 00:00:00 | |
| LZ4TU-5 | 2026-08-31 00:58:18 | 44.09083 | 22.88375 | 112° | 16km/h | 3093m | -15.8m/s | 8.3°C | 25.8% | 0hPa | 0V | 00:00:00 | 00:00:00 | 00:00:00 | |
| LZ4TU-5 | 2026-08-31 00:58:13 | 44.09092 | 22.88348 | 118° | 16km/h | 3172m | -15.8m/s | 8.0°C | 19.9% | 0hPa | 0V | 00:00:00 | 00:00:00 | 00:00:00 | |
| LZ4TU-5 | 2026-08-31 00:58:08 | 44.09106 | 22.88320 | 123° | 20km/h | 3245m | -16.0m/s | 7.7°C | 18.8% | 0hPa | 0V | 00:00:00 | 00:00:00 | 00:00:00 | |
| LZ4TU-5 | 2026-08-31 00:58:03 | 44.09121 | 22.88283 | 123° | 24km/h | 3327m | -15.9m/s | 7.2°C | 12.1% | 0hPa | 0V | 00:00:00 | 00:00:00 | 00:00:00 | |
| LZ4TU-5 | 2026-08-31 00:57:58 | 44.09134 | 22.88249 | 121° | 22km/h | 3407m | -15.9m/s | 6.7°C | 13.1% | 0hPa | 0V | 00:00:00 | 00:00:00 | 00:00:00 | |
| LZ4TU-5 | 2026-08-31 00:57:53 | 44.09147 | 22.88219 | 118° | 20km/h | 3481m | -15.8m/s | 6.1°C | 16.1% | 0hPa | 0V | 00:00:00 | 00:00:00 | 00:00:00 | |
| LZ4TU-5 | 2026-08-31 00:57:48 | 44.09158 | 22.88189 | 116° | 18km/h | 3562m | -15.9m/s | 5.3°C | 17.1% | 0hPa | 0V | 00:00:00 | 00:00:00 | 00:00:00 | |
| LZ4TU-5 | 2026-08-31 00:57:43 | 44.09169 | 22.88159 | 123° | 16km/h | 3640m | -15.9m/s | 4.6°C | 18.1% | 0hPa | 0V | 00:00:00 | 00:00:00 | 00:00:00 | |
| LZ4TU-5 | 2026-08-31 00:57:39 | 44.09181 | 22.88137 | 131° | 20km/h | 3695m | -15.9m/s | 4.4°C | 14.2% | 0hPa | 0V | 00:00:00 | 00:00:00 | 00:00:00 | |
| LZ4TU-5 | 2026-08-31 00:57:34 | 44.09197 | 22.88107 | 129° | 26km/h | 3779m | -16.0m/s | 3.8°C | 19.7% | 0hPa | 0V | 00:00:00 | 00:00:00 | 00:00:00 | |
| LZ4TU-5 | 2026-08-31 00:57:30 | 44.09214 | 22.88079 | 125° | 27km/h | 3844m | -15.9m/s | 3.5°C | 21.3% | 0hPa | 0V | 00:00:00 | 00:00:00 | 00:00:00 | |
| LZ4TU-5 | 2026-08-31 00:57:26 | 44.09230 | 22.88048 | 123° | 29km/h | 3910m | -16.1m/s | 3.2°C | 20.6% | 0hPa | 0V | 00:00:00 | 00:00:00 | 00:00:00 | |
| LZ4TU-5 | 2026-08-31 00:57:22 | 44.09247 | 22.88010 | 120° | 31km/h | 3975m | -16.2m/s | 2.9°C | 19.2% | 0hPa | 0V | 00:00:00 | 00:00:00 | 00:00:00 | |
| LZ4TU-5 | 2026-08-31 00:57:17 | 44.09267 | 22.87960 | 117° | 27km/h | 4048m | -16.2m/s | 2.5°C | 0% | 0hPa | 0V | 00:00:00 | 00:00:00 | 00:00:00 | |
| LZ4TU-5 | 2026-08-31 00:55:15 | 44.09810 | 22.86923 | 125° | 29km/h | 6094m | -17.3m/s | -9.8°C | 5.2% | 0hPa | 0V | 00:00:00 | 00:00:00 | 00:00:00 | |
| LZ4TU-5 | 2026-08-31 00:55:11 | 44.09832 | 22.86884 | 126° | 29km/h | 6186m | -17.5m/s | -10.2°C | 0% | 0hPa | 0V | 00:00:00 | 00:00:00 | 00:00:00 | |
| LZ4TU-5 | 2026-08-31 00:53:21 | 44.10491 | 22.86051 | 149° | 35km/h | 8155m | -18.6m/s | -25.6°C | 18.5% | 0hPa | 0V | 00:00:00 | 00:00:00 | 00:00:00 | |
| LZ4TU-5 | 2026-08-31 00:50:49 | 44.11977 | 22.84466 | 144° | 62km/h | 11254m | -23.6m/s | -50.2°C | 32.8% | 0hPa | 0V | 00:00:00 | 00:00:00 | 00:00:00 | |
| LZ4TU-5 | 2026-08-31 00:50:45 | 44.12027 | 22.84408 | 144° | 62km/h | 11349m | -23.9m/s | -51.0°C | 31.7% | 0hPa | 0V | 00:00:00 | 00:00:00 | 00:00:00 | |
| LZ4TU-5 | 2026-08-31 00:48:48 | 44.12885 | 22.82382 | 98° | 47km/h | 14447m | -29.5m/s | -58.2°C | 0.0% | 0hPa | 0V | 00:00:00 | 00:00:00 | 00:00:00 | |
| LZ4TU-5 | 2026-08-31 00:48:44 | 44.12889 | 22.82316 | 96° | 57km/h | 14572m | -30.2m/s | -58.3°C | 0% | 0hPa | 0V | 00:00:00 | 00:00:00 | 00:00:00 | |
| LZ4TU-5 | 2026-08-31 00:45:13 | 44.13029 | 22.81077 | 188° | 5km/h | 22700m | -50.7m/s | -54.6°C | 0.0% | 0hPa | 0V | 00:00:00 | 00:00:00 | 00:00:00 | |
| LZ4TU-5 | 2026-08-31 00:45:09 | 44.13036 | 22.81080 | 273° | 7km/h | 22880m | -50.7m/s | -54.3°C | 0.0% | 0hPa | 0V | 00:00:00 | 00:00:00 | 00:00:00 | |
| LZ4TU-5 | 2026-08-31 00:44:56 | 44.13016 | 22.81106 | 301° | 4km/h | 23555m | -52.2m/s | -54.2°C | 0.0% | 0hPa | 0V | 00:00:00 | 00:00:00 | 00:00:00 | |
| LZ4TU-5 | 2026-08-31 00:41:57 | 44.12647 | 22.81662 | 300° | 49km/h | 32446m | 6.3m/s | -41.8°C | 0.0% | 0hPa | 0V | 00:00:00 | 00:00:00 | 00:00:00 | |
| LZ4TU-5 | 2026-08-31 00:41:52 | 44.12630 | 22.81733 | 272° | 27km/h | 32410m | 6.3m/s | -41.8°C | 0.0% | 0hPa | 0V | 00:00:00 | 00:00:00 | 00:00:00 | |
| LZ4TU-5 | 2026-08-31 00:40:06 | 44.12209 | 22.82264 | 204° | 16km/h | 31644m | 7.7m/s | -42.5°C | 0.0% | 0hPa | 0V | 00:00:00 | 00:00:00 | 00:00:00 | |
| LZ4TU-5 | 2026-08-31 00:40:01 | 44.12234 | 22.82291 | 192° | 24km/h | 31602m | 6.3m/s | -42.6°C | 0.0% | 0hPa | 0V | 00:00:00 | 00:00:00 | 00:00:00 | |
| LZ4TU-5 | 2026-08-31 00:38:20 | 44.12099 | 22.81950 | 57° | 27km/h | 30852m | 7.8m/s | -45.0°C | 0.0% | 0hPa | 0V | 00:00:00 | 00:00:00 | 00:00:00 | |
| LZ4TU-5 | 2026-08-31 00:38:14 | 44.12078 | 22.81931 | 219° | 16km/h | 30814m | 6.9m/s | -44.7°C | 0% | 0hPa | 0V | 00:00:00 | 00:00:00 | 00:00:00 | |
| LZ4TU-5 | 2026-08-31 00:36:10 | 44.12013 | 22.81817 | 39° | 33km/h | 29930m | 5.7m/s | -45.3°C | 0.0% | 0hPa | 0V | 00:00:00 | 00:00:00 | 00:00:00 | |
| LZ4TU-5 | 2026-08-31 00:36:06 | 44.11988 | 22.81786 | 32° | 33km/h | 29898m | 6.3m/s | -45.6°C | 0% | 0hPa | 0V | 00:00:00 | 00:00:00 | 00:00:00 | |
| LZ4TU-5 | 2026-08-31 00:34:21 | 44.11571 | 22.81526 | 300° | 4km/h | 29137m | 6.4m/s | -46.4°C | 0.0% | 0hPa | 0V | 00:00:00 | 00:00:00 | 00:00:00 | |
| LZ4TU-5 | 2026-08-31 00:34:17 | 44.11569 | 22.81527 | 360° | 5km/h | 29097m | 5.6m/s | -46.1°C | 0.0% | 0hPa | 0V | 00:00:00 | 00:00:00 | 00:00:00 | |
| LZ4TU-5 | 2026-08-31 00:32:27 | 44.11247 | 22.81519 | 312° | 11km/h | 28341m | 5.9m/s | -46.2°C | 0.0% | 0hPa | 0V | 00:00:00 | 00:00:00 | 00:00:00 | |
| LZ4TU-5 | 2026-08-31 00:32:23 | 44.11241 | 22.81525 | 267° | 24km/h | 28314m | 6.2m/s | -46.3°C | 0.0% | 0hPa | 0V | 00:00:00 | 00:00:00 | 00:00:00 | |
| LZ4TU-5 | 2026-08-31 00:30:47 | 44.11349 | 22.81654 | 158° | 24km/h | 27662m | 7.8m/s | -47.9°C | 0.0% | 0hPa | 0V | 00:00:00 | 00:00:00 | 00:00:00 | |
| LZ4TU-5 | 2026-08-31 00:30:42 | 44.11355 | 22.81639 | 20° | 18km/h | 27621m | 8.4m/s | -48.3°C | 0.0% | 0hPa | 0V | 00:00:00 | 00:00:00 | 00:00:00 | |
| LZ4TU-5 | 2026-08-31 00:29:08 | 44.11232 | 22.81668 | 203° | 4km/h | 26956m | 6.7m/s | -48.5°C | 0.0% | 0hPa | 0V | 00:00:00 | 00:00:00 | 00:00:00 | |
| LZ4TU-5 | 2026-08-31 00:29:03 | 44.11240 | 22.81673 | 178° | 11km/h | 26921m | 8.4m/s | -48.4°C | 0.0% | 0hPa | 0V | 00:00:00 | 00:00:00 | 00:00:00 | |
| LZ4TU-5 | 2026-08-31 00:27:27 | 44.11316 | 22.81343 | 90° | 15km/h | 26280m | 7.0m/s | -50.7°C | 0.0% | 0hPa | 0V | 00:00:00 | 00:00:00 | 00:00:00 | |
| LZ4TU-5 | 2026-08-31 00:27:22 | 44.11303 | 22.81320 | 70° | 22km/h | 26242m | 5.3m/s | -50.7°C | 0.0% | 0hPa | 0V | 00:00:00 | 00:00:00 | 00:00:00 | |
| LZ4TU-5 | 2026-08-31 00:25:47 | 44.11326 | 22.81343 | 351° | 4km/h | 25598m | 6.3m/s | -50.9°C | 0.0% | 0hPa | 0V | 00:00:00 | 00:00:00 | 00:00:00 | |
| LZ4TU-5 | 2026-08-31 00:25:42 | 44.11320 | 22.81345 | 225° | 9km/h | 25569m | 5.4m/s | -50.8°C | 0% | 0hPa | 0V | 00:00:00 | 00:00:00 | 00:00:00 | |
| LZ4TU-5 | 2026-08-31 00:24:04 | 44.11208 | 22.81431 | 335° | 27km/h | 24936m | 8.7m/s | -52.5°C | 0.0% | 0hPa | 0V | 00:00:00 | 00:00:00 | 00:00:00 | |
| LZ4TU-5 | 2026-08-31 00:23:59 | 44.11187 | 22.81448 | 287° | 9km/h | 24907m | 2.9m/s | -52.8°C | 0.0% | 0hPa | 0V | 00:00:00 | 00:00:00 | 00:00:00 | |
| LZ4TU-5 | 2026-08-31 00:22:23 | 44.11117 | 22.81658 | 357° | 15km/h | 24245m | 5.4m/s | -54.4°C | 0.0% | 0hPa | 0V | 00:00:00 | 00:00:00 | 00:00:00 | |
| LZ4TU-5 | 2026-08-31 00:22:18 | 44.11105 | 22.81661 | 315° | 13km/h | 24211m | 7.3m/s | -54.4°C | 0.0% | 0hPa | 0V | 00:00:00 | 00:00:00 | 00:00:00 | |
| LZ4TU-5 | 2026-08-31 00:20:43 | 44.11019 | 22.81726 | 249° | 9km/h | 23576m | 5.4m/s | -54.5°C | 0.0% | 0hPa | 0V | 00:00:00 | 00:00:00 | 00:00:00 | |
| LZ4TU-5 | 2026-08-31 00:20:38 | 44.11006 | 22.81730 | 341° | 15km/h | 23540m | 4.9m/s | -54.2°C | 0.0% | 0hPa | 0V | 00:00:00 | 00:00:00 | 00:00:00 | |
| LZ4TU-5 | 2026-08-31 00:19:03 | 44.10783 | 22.82054 | 187° | 16km/h | 22921m | 5.6m/s | -54.6°C | 0.0% | 0hPa | 0V | 00:00:00 | 00:00:00 | 00:00:00 | |
| LZ4TU-5 | 2026-08-31 00:18:58 | 44.10795 | 22.82058 | 0° | 0km/h | 22888m | 6.2m/s | -54.5°C | 0.0% | 0hPa | 0V | 00:00:00 | 00:00:00 | 00:00:00 | |
| LZ4TU-5 | 2026-08-31 00:17:19 | 44.10805 | 22.82119 | 355° | 27km/h | 22250m | 7.9m/s | -55.8°C | 0.0% | 0hPa | 0V | 00:00:00 | 00:00:00 | 00:00:00 | |
| LZ4TU-5 | 2026-08-31 00:17:14 | 44.10797 | 22.82122 | 120° | 9km/h | 22218m | 4.7m/s | -55.6°C | 0.0% | 0hPa | 0V | 00:00:00 | 00:00:00 | 00:00:00 | |
| LZ4TU-5 | 2026-08-31 00:17:09 | 44.10788 | 22.82119 | 352° | 20km/h | 22184m | 9.2m/s | -55.7°C | 0% | 0hPa | 0V | 00:00:00 | 00:00:00 | 00:00:00 | |
| LZ4TU-5 | 2026-08-31 00:15:37 | 44.10758 | 22.82202 | 39° | 27km/h | 21588m | 6.0m/s | -55.4°C | 0.0% | 0hPa | 0V | 00:00:00 | 00:00:00 | 00:00:00 | |
| LZ4TU-5 | 2026-08-31 00:15:31 | 44.10733 | 22.82190 | 360° | 16km/h | 21555m | 6.7m/s | -55.3°C | 0.0% | 0hPa | 0V | 00:00:00 | 00:00:00 | 00:00:00 | |
| LZ4TU-5 | 2026-08-31 00:14:04 | 44.10554 | 22.82167 | 357° | 13km/h | 20991m | 6.6m/s | -55.9°C | 0.0% | 0hPa | 0V | 00:00:00 | 00:00:00 | 00:00:00 | |
| LZ4TU-5 | 2026-08-31 00:12:30 | 44.10286 | 22.82272 | 328° | 26km/h | 20399m | 8.2m/s | -56.1°C | 0.0% | 0hPa | 0V | 00:00:00 | 00:00:00 | 00:00:00 | |
| LZ4TU-5 | 2026-08-31 00:12:25 | 44.10269 | 22.82290 | 329° | 13km/h | 20370m | 5.8m/s | -56.1°C | 0.0% | 0hPa | 0V | 00:00:00 | 00:00:00 | 00:00:00 | |
| LZ4TU-5 | 2026-08-31 00:10:49 | 44.10191 | 22.82352 | 341° | 7km/h | 19801m | 6.0m/s | -57.0°C | 0.0% | 0hPa | 0V | 00:00:00 | 00:00:00 | 00:00:00 | |
| LZ4TU-5 | 2026-08-31 00:10:45 | 44.10183 | 22.82344 | 56° | 5km/h | 19775m | 6.2m/s | -57.2°C | 0% | 0hPa | 0V | 00:00:00 | 00:00:00 | 00:00:00 | |
| LZ4TU-5 | 2026-08-31 00:08:46 | 44.10144 | 22.82297 | 335° | 13km/h | 19035m | 5.7m/s | -57.8°C | 0.0% | 0hPa | 0V | 00:00:00 | 00:00:00 | 00:00:00 | |
| LZ4TU-5 | 2026-08-31 00:08:41 | 44.10131 | 22.82304 | 14° | 9km/h | 19003m | 5.8m/s | -57.7°C | 0% | 0hPa | 0V | 00:00:00 | 00:00:00 | 00:00:00 | |
| LZ4TU-5 | 2026-08-31 00:06:39 | 44.10316 | 22.81697 | 142° | 15km/h | 18264m | 7.8m/s | -57.7°C | 0.0% | 0hPa | 0V | 00:00:00 | 00:00:00 | 00:00:00 | |
| LZ4TU-5 | 2026-08-31 00:06:35 | 44.10324 | 22.81678 | 91° | 27km/h | 18243m | 3.7m/s | -57.5°C | 0.0% | 0hPa | 0V | 00:00:00 | 00:00:00 | 00:00:00 | |
| LZ4TU-5 | 2026-08-31 00:06:30 | 44.10327 | 22.81608 | 105° | 27km/h | 18213m | 6.8m/s | -57.5°C | 0.0% | 0hPa | 0V | 00:00:00 | 00:00:00 | 00:00:00 | |
| LZ4TU-5 | 2026-08-31 00:06:25 | 44.10332 | 22.81590 | 83° | 18km/h | 18183m | 7.4m/s | -57.5°C | 0% | 0hPa | 0V | 00:00:00 | 00:00:00 | 00:00:00 | |
| LZ4TU-5 | 2026-08-31 00:04:43 | 44.10114 | 22.81146 | 305° | 13km/h | 17547m | 8.5m/s | -58.3°C | 0.0% | 0hPa | 0V | 00:00:00 | 00:00:00 | 00:00:00 | |
| LZ4TU-5 | 2026-08-31 00:04:40 | 44.10116 | 22.81151 | 0° | 0km/h | 17517m | 8.3m/s | -58.0°C | 0.0% | 0hPa | 0V | 00:00:00 | 00:00:00 | 00:00:00 | |
| LZ4TU-5 | 2026-08-31 00:01:31 | 44.10673 | 22.79311 | 88° | 22km/h | 16326m | 4.7m/s | -60.9°C | 1.1% | 0hPa | 0V | 00:00:00 | 00:00:00 | 00:00:00 | |
| LZ4TU-5 | 2026-08-30 23:59:47 | 44.10616 | 22.78656 | 113° | 26km/h | 15790m | 8.4m/s | -60.5°C | 2.4% | 0hPa | 0V | 00:00:00 | 00:00:00 | 00:00:00 | |
| LZ4TU-5 | 2026-08-30 23:59:42 | 44.10630 | 22.78610 | 111° | 20km/h | 15760m | 5.6m/s | -60.4°C | 2.5% | 0hPa | 0V | 00:00:00 | 00:00:00 | 00:00:00 | |
| LZ4TU-5 | 2026-08-30 23:58:18 | 44.10991 | 22.77632 | 98° | 47km/h | 15269m | 5.6m/s | -58.6°C | 4.8% | 0hPa | 0V | 00:00:00 | 00:00:00 | 00:00:00 | |
| LZ4TU-5 | 2026-08-30 23:58:13 | 44.11009 | 22.77550 | 116° | 53km/h | 15241m | 7.5m/s | -58.5°C | 4.9% | 0hPa | 0V | 00:00:00 | 00:00:00 | 00:00:00 | |
| LZ4TU-5 | 2026-08-30 23:56:40 | 44.11469 | 22.75740 | 102° | 69km/h | 14697m | 5.8m/s | -58.4°C | 7.5% | 0hPa | 0V | 00:00:00 | 00:00:00 | 00:00:00 | |
| LZ4TU-5 | 2026-08-30 23:56:35 | 44.11487 | 22.75615 | 107° | 71km/h | 14669m | 4.3m/s | -58.6°C | 7.7% | 0hPa | 0V | 00:00:00 | 00:00:00 | 00:00:00 | |
| LZ4TU-5 | 2026-08-30 23:55:05 | 44.11703 | 22.74217 | 111° | 53km/h | 14101m | 6.5m/s | -58.0°C | 10.5% | 0hPa | 0V | 00:00:00 | 00:00:00 | 00:00:00 | |
| LZ4TU-5 | 2026-08-30 23:55:00 | 44.11746 | 22.74118 | 119° | 62km/h | 14069m | 6.6m/s | -58.2°C | 10.9% | 0hPa | 0V | 00:00:00 | 00:00:00 | 00:00:00 | |
| LZ4TU-5 | 2026-08-30 23:53:26 | 44.12132 | 22.72399 | 104° | 80km/h | 13499m | 4.4m/s | -58.5°C | 14.8% | 0hPa | 0V | 00:00:00 | 00:00:00 | 00:00:00 | |
| LZ4TU-5 | 2026-08-30 23:53:21 | 44.12144 | 22.72288 | 98° | 57km/h | 13469m | 4.8m/s | -58.4°C | 15.0% | 0hPa | 0V | 00:00:00 | 00:00:00 | 00:00:00 | |
| LZ4TU-5 | 2026-08-30 23:53:16 | 44.12170 | 22.72181 | 113° | 73km/h | 13439m | 6.5m/s | -58.3°C | 15.2% | 0hPa | 0V | 00:00:00 | 00:00:00 | 00:00:00 | |
| LZ4TU-5 | 2026-08-30 23:51:35 | 44.12562 | 22.70309 | 117° | 38km/h | 12821m | 7.1m/s | -56.5°C | 20.1% | 0hPa | 0V | 00:00:00 | 00:00:00 | 00:00:00 | |
| LZ4TU-5 | 2026-08-30 23:51:31 | 44.12591 | 22.70247 | 118° | 68km/h | 12799m | 7.9m/s | -56.3°C | 0% | 0hPa | 0V | 00:00:00 | 00:00:00 | 00:00:00 | |
| LZ4TU-5 | 2026-08-30 23:49:51 | 44.13436 | 22.68299 | 122° | 69km/h | 12176m | 5.8m/s | -57.3°C | 37.9% | 0hPa | 0V | 00:00:00 | 00:00:00 | 00:00:00 | |
| LZ4TU-5 | 2026-08-30 23:49:47 | 44.13475 | 22.68221 | 127° | 78km/h | 12148m | 5.8m/s | -57.2°C | 37.8% | 0hPa | 0V | 00:00:00 | 00:00:00 | 00:00:00 | |
| LZ4TU-5 | 2026-08-30 23:48:06 | 44.14678 | 22.66348 | 140° | 58km/h | 11533m | 4.0m/s | -53.0°C | 33.7% | 0hPa | 0V | 00:00:00 | 00:00:00 | 00:00:00 | |
| LZ4TU-5 | 2026-08-30 23:48:01 | 44.14756 | 22.66289 | 154° | 80km/h | 11499m | 7.7m/s | -52.8°C | 33.6% | 0hPa | 0V | 00:00:00 | 00:00:00 | 00:00:00 | |
| LZ4TU-5 | 2026-08-30 23:46:18 | 44.16288 | 22.65110 | 154° | 47km/h | 10913m | 6.5m/s | -48.4°C | 26.1% | 0hPa | 0V | 00:00:00 | 00:00:00 | 00:00:00 | |
| LZ4TU-5 | 2026-08-30 23:46:13 | 44.16352 | 22.65059 | 152° | 60km/h | 10886m | 6.7m/s | -48.2°C | 25.9% | 0hPa | 0V | 00:00:00 | 00:00:00 | 00:00:00 | |
| LZ4TU-5 | 2026-08-30 23:44:08 | 44.17680 | 22.63795 | 148° | 57km/h | 10147m | 5.0m/s | -42.3°C | 27.0% | 0hPa | 0V | 00:00:00 | 00:00:00 | 00:00:00 | |
| LZ4TU-5 | 2026-08-30 23:44:02 | 44.17729 | 22.63732 | 116° | 55km/h | 10118m | 5.7m/s | -42.0°C | 27.2% | 0hPa | 0V | 00:00:00 | 00:00:00 | 00:00:00 | |
| LZ4TU-5 | 2026-08-30 23:42:27 | 44.18759 | 22.62321 | 135° | 80km/h | 9574m | 6.1m/s | -37.9°C | 20.9% | 0hPa | 0V | 00:00:00 | 00:00:00 | 00:00:00 | |
| LZ4TU-5 | 2026-08-30 23:42:22 | 44.18840 | 22.62250 | 146° | 58km/h | 9550m | 7.7m/s | -37.7°C | 20.7% | 0hPa | 0V | 00:00:00 | 00:00:00 | 00:00:00 | |
| LZ4TU-5 | 2026-08-30 23:40:55 | 44.19688 | 22.61027 | 130° | 53km/h | 9040m | 8.6m/s | -33.2°C | 13.9% | 0hPa | 0V | 00:00:00 | 00:00:00 | 00:00:00 | |
| LZ4TU-5 | 2026-08-30 23:40:51 | 44.19711 | 22.60963 | 125° | 42km/h | 9020m | 4.2m/s | -33.0°C | 0% | 0hPa | 0V | 00:00:00 | 00:00:00 | 00:00:00 | |
| LZ4TU-5 | 2026-08-30 23:39:26 | 44.20401 | 22.60193 | 172° | 51km/h | 8545m | 6.3m/s | -29.5°C | 14.1% | 0hPa | 0V | 00:00:00 | 00:00:00 | 00:00:00 | |
| LZ4TU-5 | 2026-08-30 23:39:22 | 44.20444 | 22.60171 | 146° | 29km/h | 8525m | 6.4m/s | -29.4°C | 14.0% | 0hPa | 0V | 00:00:00 | 00:00:00 | 00:00:00 | |
| LZ4TU-5 | 2026-08-30 23:37:58 | 44.20955 | 22.59543 | 133° | 9km/h | 8009m | 4.3m/s | -25.5°C | 15.8% | 0hPa | 0V | 00:00:00 | 00:00:00 | 00:00:00 | |
| LZ4TU-5 | 2026-08-30 23:37:53 | 44.20984 | 22.59512 | 146° | 47km/h | 7984m | 4.8m/s | -25.2°C | 15.6% | 0hPa | 0V | 00:00:00 | 00:00:00 | 00:00:00 | |
| LZ4TU-5 | 2026-08-30 23:36:38 | 44.21445 | 22.58892 | 158° | 44km/h | 7540m | 5.1m/s | -21.2°C | 10.9% | 0hPa | 0V | 00:00:00 | 00:00:00 | 00:00:00 | |
| LZ4TU-5 | 2026-08-30 23:36:33 | 44.21465 | 22.58849 | 115° | 24km/h | 7506m | 7.1m/s | -20.9°C | 0% | 0hPa | 0V | 00:00:00 | 00:00:00 | 00:00:00 | |
| LZ4TU-5 | 2026-08-30 23:35:17 | 44.21908 | 22.58264 | 155° | 47km/h | 7056m | 5.5m/s | -17.1°C | 11.0% | 0hPa | 0V | 00:00:00 | 00:00:00 | 00:00:00 | |
| LZ4TU-5 | 2026-08-30 23:35:13 | 44.21927 | 22.58233 | 99° | 16km/h | 7032m | 6.6m/s | -16.8°C | 11.2% | 0hPa | 0V | 00:00:00 | 00:00:00 | 00:00:00 | |
| LZ4TU-5 | 2026-08-30 23:33:53 | 44.22354 | 22.57595 | 143° | 18km/h | 6546m | 6.1m/s | -13.4°C | 9.5% | 0hPa | 0V | 00:00:00 | 00:00:00 | 00:00:00 | |
| LZ4TU-5 | 2026-08-30 23:33:48 | 44.22366 | 22.57574 | 176° | 24km/h | 6517m | 5.5m/s | -13.2°C | 9.8% | 0hPa | 0V | 00:00:00 | 00:00:00 | 00:00:00 | |
| LZ4TU-5 | 2026-08-30 23:32:33 | 44.22669 | 22.57000 | 96° | 29km/h | 6081m | 5.0m/s | -10.0°C | 7.1% | 0hPa | 0V | 00:00:00 | 00:00:00 | 00:00:00 | |
| LZ4TU-5 | 2026-08-30 23:32:28 | 44.22689 | 22.56984 | 167° | 29km/h | 6051m | 5.1m/s | -9.9°C | 0% | 0hPa | 0V | 00:00:00 | 00:00:00 | 00:00:00 | |
| LZ4TU-5 | 2026-08-30 23:31:18 | 44.22922 | 22.56345 | 111° | 57km/h | 5636m | 4.1m/s | -9.3°C | 34.1% | 0hPa | 0V | 00:00:00 | 00:00:00 | 00:00:00 | |
| LZ4TU-5 | 2026-08-30 23:31:13 | 44.22931 | 22.56274 | 120° | 24km/h | 5607m | 5.5m/s | -9.1°C | 36.2% | 0hPa | 0V | 00:00:00 | 00:00:00 | 00:00:00 | |
| LZ4TU-5 | 2026-08-30 23:29:56 | 44.23126 | 22.55317 | 103° | 33km/h | 5148m | 7.3m/s | -6.6°C | 48.4% | 0hPa | 0V | 00:00:00 | 00:00:00 | 00:00:00 | |
| LZ4TU-5 | 2026-08-30 23:29:51 | 44.23132 | 22.55273 | 122° | 42km/h | 5120m | 5.5m/s | -6.4°C | 44.8% | 0hPa | 0V | 00:00:00 | 00:00:00 | 00:00:00 | |
| LZ4TU-5 | 2026-08-30 23:27:27 | 44.23906 | 22.54277 | 169° | 40km/h | 4280m | 4.5m/s | 0.6°C | 45.4% | 0hPa | 0V | 00:00:00 | 00:00:00 | 00:00:00 | |
| LZ4TU-5 | 2026-08-30 23:27:23 | 44.23926 | 22.54258 | 107° | 29km/h | 4259m | 5.2m/s | 0.7°C | 46.8% | 0hPa | 0V | 00:00:00 | 00:00:00 | 00:00:00 | |
| LZ4TU-5 | 2026-08-30 23:26:13 | 44.24218 | 22.53836 | 53° | 18km/h | 3847m | 4.6m/s | 3.6°C | 19.1% | 0hPa | 0V | 00:00:00 | 00:00:00 | 00:00:00 | |
| LZ4TU-5 | 2026-08-30 23:26:08 | 44.24221 | 22.53781 | 127° | 42km/h | 3821m | 6.7m/s | 3.7°C | 0% | 0hPa | 0V | 00:00:00 | 00:00:00 | 00:00:00 | |
| LZ4TU-5 | 2026-08-30 23:24:33 | 44.24567 | 22.53058 | 98° | 13km/h | 3273m | 5.8m/s | 6.8°C | 14.1% | 0hPa | 0V | 00:00:00 | 00:00:00 | 00:00:00 | |
| LZ4TU-5 | 2026-08-30 23:24:28 | 44.24579 | 22.53034 | 141° | 20km/h | 3245m | 5.8m/s | 7.1°C | 0% | 0hPa | 0V | 00:00:00 | 00:00:00 | 00:00:00 | |
| LZ4TU-5 | 2026-08-30 23:23:26 | 44.24693 | 22.52631 | 89° | 33km/h | 2894m | 5.8m/s | 8.6°C | 31.9% | 0hPa | 0V | 00:00:00 | 00:00:00 | 00:00:00 | |
| LZ4TU-5 | 2026-08-30 23:23:21 | 44.24700 | 22.52584 | 161° | 22km/h | 2868m | 5.6m/s | 8.7°C | 29.3% | 0hPa | 0V | 00:00:00 | 00:00:00 | 00:00:00 | |
| LZ4TU-5 | 2026-08-30 23:22:19 | 44.24687 | 22.52322 | 290° | 15km/h | 2514m | 6.3m/s | 10.3°C | 42.2% | 0hPa | 0V | 00:00:00 | 00:00:00 | 00:00:00 | |
| LZ4TU-5 | 2026-08-30 23:22:14 | 44.24681 | 22.52333 | 74° | 7km/h | 2488m | 6.2m/s | 10.1°C | 0% | 0hPa | 0V | 00:00:00 | 00:00:00 | 00:00:00 | |
| LZ4TU-5 | 2026-08-30 23:21:10 | 44.24569 | 22.52327 | 358° | 15km/h | 2114m | 5.1m/s | 12.7°C | 69.6% | 0hPa | 0V | 00:00:00 | 00:00:00 | 00:00:00 | |
| LZ4TU-5 | 2026-08-30 23:21:05 | 44.24560 | 22.52345 | 360° | 4km/h | 2087m | 5.8m/s | 13.0°C | 69.0% | 0hPa | 0V | 00:00:00 | 00:00:00 | 00:00:00 | |
| LZ4TU-5 | 2026-08-30 23:19:58 | 44.24438 | 22.52445 | 326° | 22km/h | 1702m | 3.5m/s | 15.7°C | 0% | 0hPa | 0V | 00:00:00 | 00:00:00 | 00:00:00 | |
| LZ4TU-5 | 2026-08-30 23:18:55 | 44.24316 | 22.52720 | 316° | 11km/h | 1351m | 4.4m/s | 18.5°C | 56.2% | 0hPa | 0V | 00:00:00 | 00:00:00 | 00:00:00 | |
| LZ4TU-5 | 2026-08-30 23:18:51 | 44.24313 | 22.52742 | 266° | 16km/h | 1330m | 4.5m/s | 18.7°C | 56.2% | 0hPa | 0V | 00:00:00 | 00:00:00 | 00:00:00 | |
| LZ4TU-5 | 2026-08-30 23:17:48 | 44.24232 | 22.53159 | 221° | 4km/h | 962m | 6.3m/s | 21.8°C | 48.6% | 0hPa | 0V | 00:00:00 | 00:00:00 | 00:00:00 | |
| LZ4TU-5 | 2026-08-30 23:17:44 | 44.24237 | 22.53171 | 293° | 20km/h | 941m | 6.0m/s | 21.9°C | 0% | 0hPa | 0V | 00:00:00 | 00:00:00 | 00:00:00 | |
| LZ4TU-5 | 2026-08-30 23:16:41 | 44.24027 | 22.53546 | 302° | 24km/h | 582m | 5.3m/s | 24.3°C | 48.4% | 0hPa | 0V | 00:00:00 | 00:00:00 | 00:00:00 | |
| LZ4TU-5 | 2026-08-30 23:16:36 | 44.23990 | 22.53592 | 338° | 38km/h | 553m | 5.7m/s | 24.3°C | 48.5% | 0hPa | 0V | 00:00:00 | 00:00:00 | 00:00:00 |